Lake Tomahawk, Wisconsin
Current Conditions -  °F | °C
As of 2:55 PM on Tuesday 27 Jan 2015 (Local Time) from KARV Reporting Station
Overcast Overcast  
Wind Chill: 19°   Ceiling: 1600
Heat Index: 25°   Visibility: 10mi
Dew Point: 19°   Wind: 5mph
Humidity: 79%   Direction: 200°SSW
Pressure: 30.14"   Gusts: NA
Location:  45.81°N, 89.59°W
Report Text: KARV 272055Z AUTO 20004KT 10SM OVC016 M04/M07 A3014 RMK AO2 T10401071
Loading
Personal Weather Stations






























Interactive Weather Map New forecast layout! Learn more

10-Day Weather Forecast

Advertisements
Track Severe Weather on mobile